sensor_id;sensor_type;location;lat;lon;timestamp;P1;durP1;ratioP1;P2;durP2;ratioP2
5147;SDS011;2592;48.140;7.614;2022-07-12T00:00:38;8.97;;;4.40;;
5147;SDS011;2592;48.140;7.614;2022-07-12T00:03:04;5.77;;;3.73;;
5147;SDS011;2592;48.140;7.614;2022-07-12T00:05:30;5.50;;;4.20;;
5147;SDS011;2592;48.140;7.614;2022-07-12T00:07:57;5.60;;;4.00;;
5147;SDS011;2592;48.140;7.614;2022-07-12T00:10:23;10.30;;;3.90;;
5147;SDS011;2592;48.140;7.614;2022-07-12T00:12:50;5.50;;;3.57;;
5147;SDS011;2592;48.140;7.614;2022-07-12T00:15:16;5.47;;;3.80;;
5147;SDS011;2592;48.140;7.614;2022-07-12T00:17:44;6.70;;;4.07;;
5147;SDS011;2592;48.140;7.614;2022-07-12T00:20:11;5.23;;;4.37;;
5147;SDS011;2592;48.140;7.614;2022-07-12T00:22:37;5.00;;;3.87;;
5147;SDS011;2592;48.140;7.614;2022-07-12T00:25:04;4.70;;;3.57;;
5147;SDS011;2592;48.140;7.614;2022-07-12T00:27:31;5.97;;;4.57;;
5147;SDS011;2592;48.140;7.614;2022-07-12T00:29:57;6.07;;;4.70;;
5147;SDS011;2592;48.140;7.614;2022-07-12T00:32:23;5.67;;;4.27;;
5147;SDS011;2592;48.140;7.614;2022-07-12T00:34:51;9.97;;;5.40;;
5147;SDS011;2592;48.140;7.614;2022-07-12T00:37:18;8.17;;;4.60;;
5147;SDS011;2592;48.140;7.614;2022-07-12T00:39:45;6.03;;;4.50;;
5147;SDS011;2592;48.140;7.614;2022-07-12T00:42:11;7.00;;;4.80;;
5147;SDS011;2592;48.140;7.614;2022-07-12T00:44:38;8.43;;;5.50;;
5147;SDS011;2592;48.140;7.614;2022-07-12T00:47:04;7.17;;;4.50;;
5147;SDS011;2592;48.140;7.614;2022-07-12T00:49:31;7.07;;;4.27;;
5147;SDS011;2592;48.140;7.614;2022-07-12T00:51:59;6.33;;;4.50;;
5147;SDS011;2592;48.140;7.614;2022-07-12T00:54:26;8.50;;;4.80;;
5147;SDS011;2592;48.140;7.614;2022-07-12T00:56:52;7.80;;;4.57;;
5147;SDS011;2592;48.140;7.614;2022-07-12T00:59:19;5.77;;;4.53;;
5147;SDS011;2592;48.140;7.614;2022-07-12T01:01:46;5.63;;;4.57;;
5147;SDS011;2592;48.140;7.614;2022-07-12T01:04:12;9.67;;;4.30;;
5147;SDS011;2592;48.140;7.614;2022-07-12T01:06:42;4.50;;;4.10;;
5147;SDS011;2592;48.140;7.614;2022-07-12T01:09:10;7.80;;;4.77;;
5147;SDS011;2592;48.140;7.614;2022-07-12T01:11:37;6.37;;;4.47;;
5147;SDS011;2592;48.140;7.614;2022-07-12T01:14:04;9.40;;;4.70;;
5147;SDS011;2592;48.140;7.614;2022-07-12T01:16:30;7.90;;;4.20;;
5147;SDS011;2592;48.140;7.614;2022-07-12T01:18:57;9.83;;;4.93;;
5147;SDS011;2592;48.140;7.614;2022-07-12T01:21:24;14.70;;;4.87;;
5147;SDS011;2592;48.140;7.614;2022-07-12T01:23:54;7.00;;;4.50;;
5147;SDS011;2592;48.140;7.614;2022-07-12T01:26:21;6.00;;;4.30;;
5147;SDS011;2592;48.140;7.614;2022-07-12T01:28:47;6.20;;;3.93;;
5147;SDS011;2592;48.140;7.614;2022-07-12T01:31:14;6.80;;;4.03;;
5147;SDS011;2592;48.140;7.614;2022-07-12T01:33:41;4.57;;;3.83;;
5147;SDS011;2592;48.140;7.614;2022-07-12T01:36:07;6.47;;;4.83;;
5147;SDS011;2592;48.140;7.614;2022-07-12T01:38:34;6.37;;;5.23;;
5147;SDS011;2592;48.140;7.614;2022-07-12T01:41:02;5.27;;;4.23;;
5147;SDS011;2592;48.140;7.614;2022-07-12T01:43:29;5.43;;;4.43;;
5147;SDS011;2592;48.140;7.614;2022-07-12T01:45:55;5.10;;;4.00;;
5147;SDS011;2592;48.140;7.614;2022-07-12T01:48:22;6.63;;;4.47;;
5147;SDS011;2592;48.140;7.614;2022-07-12T01:50:48;6.87;;;4.67;;
5147;SDS011;2592;48.140;7.614;2022-07-12T01:53:15;6.63;;;4.30;;
5147;SDS011;2592;48.140;7.614;2022-07-12T01:55:42;5.60;;;4.13;;
5147;SDS011;2592;48.140;7.614;2022-07-12T01:58:09;7.63;;;4.03;;
5147;SDS011;2592;48.140;7.614;2022-07-12T02:00:37;6.90;;;4.87;;
5147;SDS011;2592;48.140;7.614;2022-07-12T02:03:04;7.60;;;4.60;;
5147;SDS011;2592;48.140;7.614;2022-07-12T02:05:30;7.27;;;4.70;;
5147;SDS011;2592;48.140;7.614;2022-07-12T02:07:57;7.93;;;4.73;;
5147;SDS011;2592;48.140;7.614;2022-07-12T02:10:23;6.60;;;4.40;;
5147;SDS011;2592;48.140;7.614;2022-07-12T02:12:50;6.80;;;4.27;;
5147;SDS011;2592;48.140;7.614;2022-07-12T02:15:18;5.03;;;4.30;;
5147;SDS011;2592;48.140;7.614;2022-07-12T02:17:44;4.40;;;3.77;;
5147;SDS011;2592;48.140;7.614;2022-07-12T02:20:12;7.63;;;4.33;;
5147;SDS011;2592;48.140;7.614;2022-07-12T02:22:39;4.77;;;4.27;;
5147;SDS011;2592;48.140;7.614;2022-07-12T02:25:05;4.70;;;3.53;;
5147;SDS011;2592;48.140;7.614;2022-07-12T02:27:32;11.83;;;4.73;;
5147;SDS011;2592;48.140;7.614;2022-07-12T02:29:58;8.80;;;4.83;;
5147;SDS011;2592;48.140;7.614;2022-07-12T02:32:27;5.20;;;4.40;;
5147;SDS011;2592;48.140;7.614;2022-07-12T02:34:53;9.70;;;4.97;;
5147;SDS011;2592;48.140;7.614;2022-07-12T02:37:20;8.47;;;4.90;;
5147;SDS011;2592;48.140;7.614;2022-07-12T02:39:46;6.43;;;4.70;;
5147;SDS011;2592;48.140;7.614;2022-07-12T02:42:12;4.97;;;4.47;;
5147;SDS011;2592;48.140;7.614;2022-07-12T02:44:39;12.23;;;4.53;;
5147;SDS011;2592;48.140;7.614;2022-07-12T02:47:05;8.70;;;4.20;;
5147;SDS011;2592;48.140;7.614;2022-07-12T02:49:33;4.17;;;3.77;;
5147;SDS011;2592;48.140;7.614;2022-07-12T02:52:00;4.87;;;4.27;;
5147;SDS011;2592;48.140;7.614;2022-07-12T02:54:26;4.93;;;4.43;;
5147;SDS011;2592;48.140;7.614;2022-07-12T02:56:53;7.83;;;4.43;;
5147;SDS011;2592;48.140;7.614;2022-07-12T02:59:19;4.80;;;4.30;;
5147;SDS011;2592;48.140;7.614;2022-07-12T03:01:45;5.20;;;4.00;;
5147;SDS011;2592;48.140;7.614;2022-07-12T03:04:12;5.60;;;4.50;;
5147;SDS011;2592;48.140;7.614;2022-07-12T03:06:40;5.23;;;3.90;;
5147;SDS011;2592;48.140;7.614;2022-07-12T03:09:06;6.60;;;4.57;;
5147;SDS011;2592;48.140;7.614;2022-07-12T03:11:33;10.47;;;4.57;;
5147;SDS011;2592;48.140;7.614;2022-07-12T03:13:59;8.10;;;4.23;;
5147;SDS011;2592;48.140;7.614;2022-07-12T03:16:26;5.60;;;4.23;;
5147;SDS011;2592;48.140;7.614;2022-07-12T03:18:52;5.10;;;4.17;;
5147;SDS011;2592;48.140;7.614;2022-07-12T03:21:18;6.50;;;3.73;;
5147;SDS011;2592;48.140;7.614;2022-07-12T03:23:46;3.90;;;3.50;;
5147;SDS011;2592;48.140;7.614;2022-07-12T03:26:13;6.67;;;4.60;;
5147;SDS011;2592;48.140;7.614;2022-07-12T03:28:39;5.83;;;4.13;;
5147;SDS011;2592;48.140;7.614;2022-07-12T03:31:05;7.23;;;4.73;;
5147;SDS011;2592;48.140;7.614;2022-07-12T03:33:32;6.90;;;5.80;;
5147;SDS011;2592;48.140;7.614;2022-07-12T03:35:59;6.83;;;5.00;;
5147;SDS011;2592;48.140;7.614;2022-07-12T03:38:25;5.63;;;4.33;;
5147;SDS011;2592;48.140;7.614;2022-07-12T03:40:53;5.40;;;4.10;;
5147;SDS011;2592;48.140;7.614;2022-07-12T03:43:19;5.73;;;4.33;;
5147;SDS011;2592;48.140;7.614;2022-07-12T03:45:46;4.80;;;3.90;;
5147;SDS011;2592;48.140;7.614;2022-07-12T03:48:12;5.00;;;4.20;;
5147;SDS011;2592;48.140;7.614;2022-07-12T03:50:39;4.13;;;3.73;;
5147;SDS011;2592;48.140;7.614;2022-07-12T03:53:05;9.70;;;4.80;;
5147;SDS011;2592;48.140;7.614;2022-07-12T03:55:32;5.80;;;4.43;;
5147;SDS011;2592;48.140;7.614;2022-07-12T03:57:59;5.60;;;3.70;;
5147;SDS011;2592;48.140;7.614;2022-07-12T04:00:26;6.53;;;5.20;;
5147;SDS011;2592;48.140;7.614;2022-07-12T04:02:52;6.10;;;3.67;;
5147;SDS011;2592;48.140;7.614;2022-07-12T04:05:19;8.53;;;4.07;;
5147;SDS011;2592;48.140;7.614;2022-07-12T04:07:45;5.20;;;4.30;;
5147;SDS011;2592;48.140;7.614;2022-07-12T04:10:12;8.30;;;3.97;;
5147;SDS011;2592;48.140;7.614;2022-07-12T04:12:38;12.20;;;4.67;;
5147;SDS011;2592;48.140;7.614;2022-07-12T04:15:07;7.50;;;4.73;;
5147;SDS011;2592;48.140;7.614;2022-07-12T04:17:34;5.33;;;4.60;;
5147;SDS011;2592;48.140;7.614;2022-07-12T04:20:00;5.10;;;4.37;;
5147;SDS011;2592;48.140;7.614;2022-07-12T04:22:26;4.03;;;3.50;;
5147;SDS011;2592;48.140;7.614;2022-07-12T04:24:54;6.93;;;4.33;;
5147;SDS011;2592;48.140;7.614;2022-07-12T04:27:20;4.83;;;3.80;;
5147;SDS011;2592;48.140;7.614;2022-07-12T04:29:46;7.00;;;3.90;;
5147;SDS011;2592;48.140;7.614;2022-07-12T04:32:14;9.20;;;4.20;;
5147;SDS011;2592;48.140;7.614;2022-07-12T04:34:41;5.00;;;4.13;;
5147;SDS011;2592;48.140;7.614;2022-07-12T04:37:07;5.40;;;3.90;;
5147;SDS011;2592;48.140;7.614;2022-07-12T04:39:34;5.67;;;4.30;;
5147;SDS011;2592;48.140;7.614;2022-07-12T04:42:00;4.40;;;4.00;;
5147;SDS011;2592;48.140;7.614;2022-07-12T04:44:27;4.73;;;3.37;;
5147;SDS011;2592;48.140;7.614;2022-07-12T04:46:53;7.87;;;3.83;;
5147;SDS011;2592;48.140;7.614;2022-07-12T04:49:21;6.30;;;4.00;;
5147;SDS011;2592;48.140;7.614;2022-07-12T04:51:47;4.03;;;3.60;;
5147;SDS011;2592;48.140;7.614;2022-07-12T04:54:14;4.70;;;4.20;;
5147;SDS011;2592;48.140;7.614;2022-07-12T04:56:41;3.83;;;3.43;;
5147;SDS011;2592;48.140;7.614;2022-07-12T04:59:07;6.57;;;3.87;;
5147;SDS011;2592;48.140;7.614;2022-07-12T05:01:33;6.80;;;3.97;;
5147;SDS011;2592;48.140;7.614;2022-07-12T05:04:00;4.97;;;3.90;;
5147;SDS011;2592;48.140;7.614;2022-07-12T05:06:28;5.27;;;3.53;;
5147;SDS011;2592;48.140;7.614;2022-07-12T05:08:54;6.83;;;3.57;;
5147;SDS011;2592;48.140;7.614;2022-07-12T05:11:21;7.90;;;3.80;;
5147;SDS011;2592;48.140;7.614;2022-07-12T05:13:47;6.83;;;3.30;;
5147;SDS011;2592;48.140;7.614;2022-07-12T05:16:14;7.50;;;3.30;;
5147;SDS011;2592;48.140;7.614;2022-07-12T05:18:40;4.90;;;4.00;;
5147;SDS011;2592;48.140;7.614;2022-07-12T05:21:07;5.07;;;4.20;;
5147;SDS011;2592;48.140;7.614;2022-07-12T05:23:34;5.00;;;3.20;;
5147;SDS011;2592;48.140;7.614;2022-07-12T05:26:01;6.23;;;3.70;;
5147;SDS011;2592;48.140;7.614;2022-07-12T05:28:27;5.90;;;3.43;;
5147;SDS011;2592;48.140;7.614;2022-07-12T05:30:54;4.10;;;2.50;;
5147;SDS011;2592;48.140;7.614;2022-07-12T05:33:20;4.43;;;3.80;;
5147;SDS011;2592;48.140;7.614;2022-07-12T05:35:47;7.23;;;3.40;;
5147;SDS011;2592;48.140;7.614;2022-07-12T05:38:13;7.77;;;3.80;;
5147;SDS011;2592;48.140;7.614;2022-07-12T05:40:41;7.83;;;3.40;;
5147;SDS011;2592;48.140;7.614;2022-07-12T05:43:08;5.50;;;3.30;;
5147;SDS011;2592;48.140;7.614;2022-07-12T05:45:34;3.07;;;2.77;;
5147;SDS011;2592;48.140;7.614;2022-07-12T05:48:00;7.30;;;3.97;;
5147;SDS011;2592;48.140;7.614;2022-07-12T05:50:27;4.97;;;3.40;;
5147;SDS011;2592;48.140;7.614;2022-07-12T05:52:53;4.10;;;3.10;;
5147;SDS011;2592;48.140;7.614;2022-07-12T05:55:37;5.13;;;3.67;;
5147;SDS011;2592;48.140;7.614;2022-07-12T05:58:05;6.00;;;3.00;;
5147;SDS011;2592;48.140;7.614;2022-07-12T06:00:31;5.67;;;2.73;;
5147;SDS011;2592;48.140;7.614;2022-07-12T06:02:58;6.43;;;3.53;;
5147;SDS011;2592;48.140;7.614;2022-07-12T06:05:24;2.90;;;2.60;;
5147;SDS011;2592;48.140;7.614;2022-07-12T06:07:51;3.57;;;3.13;;
5147;SDS011;2592;48.140;7.614;2022-07-12T06:10:17;3.80;;;2.40;;
5147;SDS011;2592;48.140;7.614;2022-07-12T06:12:44;8.80;;;2.53;;
5147;SDS011;2592;48.140;7.614;2022-07-12T06:15:12;6.07;;;2.67;;
5147;SDS011;2592;48.140;7.614;2022-07-12T06:17:38;3.57;;;2.87;;
5147;SDS011;2592;48.140;7.614;2022-07-12T06:20:05;4.30;;;2.90;;
5147;SDS011;2592;48.140;7.614;2022-07-12T06:22:32;2.90;;;2.60;;
5147;SDS011;2592;48.140;7.614;2022-07-12T06:24:58;10.60;;;3.20;;
5147;SDS011;2592;48.140;7.614;2022-07-12T06:27:25;8.00;;;2.63;;
5147;SDS011;2592;48.140;7.614;2022-07-12T06:29:52;4.20;;;3.13;;
5147;SDS011;2592;48.140;7.614;2022-07-12T06:32:19;10.97;;;3.73;;
5147;SDS011;2592;48.140;7.614;2022-07-12T06:34:46;3.90;;;2.70;;
5147;SDS011;2592;48.140;7.614;2022-07-12T06:37:12;4.57;;;2.70;;
5147;SDS011;2592;48.140;7.614;2022-07-12T06:45:17;3.33;;;2.83;;
5147;SDS011;2592;48.140;7.614;2022-07-12T06:47:45;3.80;;;2.50;;
5147;SDS011;2592;48.140;7.614;2022-07-12T06:50:12;7.43;;;3.40;;
5147;SDS011;2592;48.140;7.614;2022-07-12T06:52:44;7.70;;;2.70;;
5147;SDS011;2592;48.140;7.614;2022-07-12T06:55:11;6.87;;;2.43;;
5147;SDS011;2592;48.140;7.614;2022-07-12T06:57:38;4.73;;;2.60;;
5147;SDS011;2592;48.140;7.614;2022-07-12T07:00:05;3.70;;;3.10;;
5147;SDS011;2592;48.140;7.614;2022-07-12T07:02:32;5.50;;;2.90;;
5147;SDS011;2592;48.140;7.614;2022-07-12T07:04:59;4.63;;;2.40;;
5147;SDS011;2592;48.140;7.614;2022-07-12T07:07:26;4.20;;;2.43;;
5147;SDS011;2592;48.140;7.614;2022-07-12T07:09:52;4.33;;;2.30;;
5147;SDS011;2592;48.140;7.614;2022-07-12T07:12:19;4.10;;;3.10;;
5147;SDS011;2592;48.140;7.614;2022-07-12T07:14:45;6.23;;;2.67;;
5147;SDS011;2592;48.140;7.614;2022-07-12T07:17:12;6.43;;;2.97;;
5147;SDS011;2592;48.140;7.614;2022-07-12T07:19:41;9.50;;;2.80;;
5147;SDS011;2592;48.140;7.614;2022-07-12T07:22:09;6.77;;;2.80;;
5147;SDS011;2592;48.140;7.614;2022-07-12T07:24:35;4.30;;;2.80;;
5147;SDS011;2592;48.140;7.614;2022-07-12T07:27:02;3.77;;;2.83;;
5147;SDS011;2592;48.140;7.614;2022-07-12T07:29:28;3.33;;;2.43;;
5147;SDS011;2592;48.140;7.614;2022-07-12T07:32:15;8.50;;;3.00;;
5147;SDS011;2592;48.140;7.614;2022-07-12T07:34:41;3.57;;;2.40;;
5147;SDS011;2592;48.140;7.614;2022-07-12T07:37:09;4.57;;;2.50;;
5147;SDS011;2592;48.140;7.614;2022-07-12T07:39:35;11.60;;;2.70;;
5147;SDS011;2592;48.140;7.614;2022-07-12T07:42:02;5.73;;;2.60;;
5147;SDS011;2592;48.140;7.614;2022-07-12T07:44:29;4.67;;;3.00;;
5147;SDS011;2592;48.140;7.614;2022-07-12T07:46:56;5.10;;;2.40;;
5147;SDS011;2592;48.140;7.614;2022-07-12T07:49:22;2.90;;;2.30;;
5147;SDS011;2592;48.140;7.614;2022-07-12T07:51:48;2.90;;;2.30;;
5147;SDS011;2592;48.140;7.614;2022-07-12T07:54:16;3.90;;;2.97;;
5147;SDS011;2592;48.140;7.614;2022-07-12T07:56:43;5.87;;;2.40;;
5147;SDS011;2592;48.140;7.614;2022-07-12T07:59:09;2.43;;;2.23;;
5147;SDS011;2592;48.140;7.614;2022-07-12T08:01:35;2.50;;;2.30;;
5147;SDS011;2592;48.140;7.614;2022-07-12T08:04:11;4.73;;;2.50;;
5147;SDS011;2592;48.140;7.614;2022-07-12T08:06:38;3.47;;;2.23;;
5147;SDS011;2592;48.140;7.614;2022-07-12T08:09:04;6.27;;;2.23;;
5147;SDS011;2592;48.140;7.614;2022-07-12T08:11:32;6.23;;;2.20;;
5147;SDS011;2592;48.140;7.614;2022-07-12T08:13:58;2.43;;;2.10;;
5147;SDS011;2592;48.140;7.614;2022-07-12T08:16:25;2.80;;;2.23;;
5147;SDS011;2592;48.140;7.614;2022-07-12T08:18:51;7.50;;;2.80;;
5147;SDS011;2592;48.140;7.614;2022-07-12T08:21:18;5.10;;;2.73;;
5147;SDS011;2592;48.140;7.614;2022-07-12T08:23:44;2.10;;;1.90;;
5147;SDS011;2592;48.140;7.614;2022-07-12T08:26:11;4.77;;;2.40;;
5147;SDS011;2592;48.140;7.614;2022-07-12T08:28:39;3.27;;;2.30;;
5147;SDS011;2592;48.140;7.614;2022-07-12T08:31:05;5.37;;;2.40;;
5147;SDS011;2592;48.140;7.614;2022-07-12T08:33:32;4.53;;;2.20;;
5147;SDS011;2592;48.140;7.614;2022-07-12T08:35:58;2.90;;;2.60;;
5147;SDS011;2592;48.140;7.614;2022-07-12T08:38:25;2.40;;;1.93;;
5147;SDS011;2592;48.140;7.614;2022-07-12T08:40:52;2.30;;;1.80;;
5147;SDS011;2592;48.140;7.614;2022-07-12T08:43:18;2.20;;;1.90;;
5147;SDS011;2592;48.140;7.614;2022-07-12T08:45:47;5.00;;;2.53;;
5147;SDS011;2592;48.140;7.614;2022-07-12T08:48:13;6.03;;;2.20;;
5147;SDS011;2592;48.140;7.614;2022-07-12T08:50:40;3.47;;;2.23;;
5147;SDS011;2592;48.140;7.614;2022-07-12T08:53:09;2.87;;;2.67;;
5147;SDS011;2592;48.140;7.614;2022-07-12T08:55:36;3.17;;;2.10;;
5147;SDS011;2592;48.140;7.614;2022-07-12T08:58:03;6.10;;;2.70;;
5147;SDS011;2592;48.140;7.614;2022-07-12T09:00:31;3.07;;;2.40;;
5147;SDS011;2592;48.140;7.614;2022-07-12T09:03:00;2.73;;;2.13;;
5147;SDS011;2592;48.140;7.614;2022-07-12T09:05:27;2.70;;;2.33;;
5147;SDS011;2592;48.140;7.614;2022-07-12T09:08:01;4.23;;;2.00;;
5147;SDS011;2592;48.140;7.614;2022-07-12T09:10:28;2.57;;;2.00;;
5147;SDS011;2592;48.140;7.614;2022-07-12T09:12:54;5.03;;;2.00;;
5147;SDS011;2592;48.140;7.614;2022-07-12T09:15:21;3.20;;;2.57;;
5147;SDS011;2592;48.140;7.614;2022-07-12T09:17:54;5.27;;;2.57;;
5147;SDS011;2592;48.140;7.614;2022-07-12T09:20:23;3.80;;;2.60;;
5147;SDS011;2592;48.140;7.614;2022-07-12T09:22:51;4.00;;;2.20;;
5147;SDS011;2592;48.140;7.614;2022-07-12T09:25:18;4.20;;;2.30;;
5147;SDS011;2592;48.140;7.614;2022-07-12T09:27:48;10.20;;;2.37;;
5147;SDS011;2592;48.140;7.614;2022-07-12T09:30:15;2.53;;;2.00;;
5147;SDS011;2592;48.140;7.614;2022-07-12T09:32:55;7.77;;;2.53;;
5147;SDS011;2592;48.140;7.614;2022-07-12T09:35:41;2.90;;;2.33;;
5147;SDS011;2592;48.140;7.614;2022-07-12T09:38:25;8.40;;;2.80;;
5147;SDS011;2592;48.140;7.614;2022-07-12T09:40:53;5.00;;;2.70;;
5147;SDS011;2592;48.140;7.614;2022-07-12T09:43:21;8.80;;;2.80;;
5147;SDS011;2592;48.140;7.614;2022-07-12T09:45:48;2.40;;;2.03;;
5147;SDS011;2592;48.140;7.614;2022-07-12T09:48:15;13.23;;;2.53;;
5147;SDS011;2592;48.140;7.614;2022-07-12T09:50:46;3.13;;;2.30;;
5147;SDS011;2592;48.140;7.614;2022-07-12T09:53:14;2.50;;;1.93;;
5147;SDS011;2592;48.140;7.614;2022-07-12T09:55:45;9.43;;;2.50;;
5147;SDS011;2592;48.140;7.614;2022-07-12T09:58:13;2.60;;;2.03;;
5147;SDS011;2592;48.140;7.614;2022-07-12T10:00:39;3.83;;;2.50;;
5147;SDS011;2592;48.140;7.614;2022-07-12T10:03:07;3.80;;;1.90;;
5147;SDS011;2592;48.140;7.614;2022-07-12T10:05:33;2.83;;;1.90;;
5147;SDS011;2592;48.140;7.614;2022-07-12T10:08:02;2.90;;;1.83;;
5147;SDS011;2592;48.140;7.614;2022-07-12T10:10:28;3.30;;;1.70;;
5147;SDS011;2592;48.140;7.614;2022-07-12T10:12:55;3.00;;;2.00;;
5147;SDS011;2592;48.140;7.614;2022-07-12T10:15:22;2.77;;;2.00;;
5147;SDS011;2592;48.140;7.614;2022-07-12T10:17:53;2.43;;;2.00;;
5147;SDS011;2592;48.140;7.614;2022-07-12T10:20:21;3.23;;;1.97;;
5147;SDS011;2592;48.140;7.614;2022-07-12T10:22:48;2.00;;;1.80;;
5147;SDS011;2592;48.140;7.614;2022-07-12T10:25:32;1.97;;;1.77;;
5147;SDS011;2592;48.140;7.614;2022-07-12T10:27:58;2.13;;;1.73;;
5147;SDS011;2592;48.140;7.614;2022-07-12T10:30:25;3.20;;;1.90;;
5147;SDS011;2592;48.140;7.614;2022-07-12T10:32:52;7.93;;;2.30;;
5147;SDS011;2592;48.140;7.614;2022-07-12T10:35:22;2.30;;;2.00;;
5147;SDS011;2592;48.140;7.614;2022-07-12T10:40:35;6.43;;;2.20;;
5147;SDS011;2592;48.140;7.614;2022-07-12T10:43:12;4.13;;;2.10;;
5147;SDS011;2592;48.140;7.614;2022-07-12T10:45:39;2.80;;;1.70;;
5147;SDS011;2592;48.140;7.614;2022-07-12T10:48:06;2.20;;;2.00;;
5147;SDS011;2592;48.140;7.614;2022-07-12T10:53:23;3.60;;;2.00;;
5147;SDS011;2592;48.140;7.614;2022-07-12T10:56:07;5.87;;;1.73;;
5147;SDS011;2592;48.140;7.614;2022-07-12T10:58:34;4.57;;;2.20;;
5147;SDS011;2592;48.140;7.614;2022-07-12T11:01:01;3.27;;;1.97;;
5147;SDS011;2592;48.140;7.614;2022-07-12T11:03:29;3.57;;;1.80;;
5147;SDS011;2592;48.140;7.614;2022-07-12T11:05:59;7.17;;;2.60;;
5147;SDS011;2592;48.140;7.614;2022-07-12T11:08:27;7.50;;;3.63;;
5147;SDS011;2592;48.140;7.614;2022-07-12T11:10:56;3.13;;;2.30;;
5147;SDS011;2592;48.140;7.614;2022-07-12T11:13:24;3.63;;;1.70;;
5147;SDS011;2592;48.140;7.614;2022-07-12T11:15:57;1.90;;;1.50;;
5147;SDS011;2592;48.140;7.614;2022-07-12T11:18:29;5.37;;;2.43;;
5147;SDS011;2592;48.140;7.614;2022-07-12T11:20:56;3.63;;;1.90;;
5147;SDS011;2592;48.140;7.614;2022-07-12T11:23:23;3.23;;;2.03;;
5147;SDS011;2592;48.140;7.614;2022-07-12T11:25:52;2.20;;;1.47;;
5147;SDS011;2592;48.140;7.614;2022-07-12T11:28:19;2.00;;;1.80;;
5147;SDS011;2592;48.140;7.614;2022-07-12T11:30:50;2.30;;;2.10;;
5147;SDS011;2592;48.140;7.614;2022-07-12T11:33:16;2.70;;;2.23;;
5147;SDS011;2592;48.140;7.614;2022-07-12T11:35:43;5.60;;;1.77;;
5147;SDS011;2592;48.140;7.614;2022-07-12T11:38:10;4.73;;;2.00;;
5147;SDS011;2592;48.140;7.614;2022-07-12T11:40:36;2.10;;;1.87;;
5147;SDS011;2592;48.140;7.614;2022-07-12T11:43:03;6.40;;;1.70;;
5147;SDS011;2592;48.140;7.614;2022-07-12T11:45:31;2.70;;;1.60;;
5147;SDS011;2592;48.140;7.614;2022-07-12T11:47:59;6.13;;;2.37;;
5147;SDS011;2592;48.140;7.614;2022-07-12T11:50:26;2.00;;;1.67;;
5147;SDS011;2592;48.140;7.614;2022-07-12T11:52:52;7.73;;;2.10;;
5147;SDS011;2592;48.140;7.614;2022-07-12T11:55:19;2.37;;;1.80;;
5147;SDS011;2592;48.140;7.614;2022-07-12T11:57:45;1.70;;;1.50;;
5147;SDS011;2592;48.140;7.614;2022-07-12T12:00:12;6.20;;;1.83;;
5147;SDS011;2592;48.140;7.614;2022-07-12T12:02:39;2.43;;;1.60;;
5147;SDS011;2592;48.140;7.614;2022-07-12T12:05:07;3.63;;;2.23;;
5147;SDS011;2592;48.140;7.614;2022-07-12T12:07:34;2.07;;;1.83;;
5147;SDS011;2592;48.140;7.614;2022-07-12T12:10:01;3.50;;;2.00;;
5147;SDS011;2592;48.140;7.614;2022-07-12T12:12:28;9.97;;;1.63;;
5147;SDS011;2592;48.140;7.614;2022-07-12T12:15:01;4.30;;;1.80;;
5147;SDS011;2592;48.140;7.614;2022-07-12T12:17:27;1.67;;;1.57;;
5147;SDS011;2592;48.140;7.614;2022-07-12T12:19:54;3.10;;;2.00;;
5147;SDS011;2592;48.140;7.614;2022-07-12T12:22:28;2.60;;;1.47;;
5147;SDS011;2592;48.140;7.614;2022-07-12T12:24:58;2.57;;;1.60;;
5147;SDS011;2592;48.140;7.614;2022-07-12T12:27:24;2.60;;;1.80;;
5147;SDS011;2592;48.140;7.614;2022-07-12T12:29:51;3.53;;;2.20;;
5147;SDS011;2592;48.140;7.614;2022-07-12T12:32:17;3.27;;;1.80;;
5147;SDS011;2592;48.140;7.614;2022-07-12T12:37:25;9.83;;;2.13;;
5147;SDS011;2592;48.140;7.614;2022-07-12T12:39:53;6.10;;;1.50;;
5147;SDS011;2592;48.140;7.614;2022-07-12T12:42:23;2.00;;;1.80;;
5147;SDS011;2592;48.140;7.614;2022-07-12T12:44:49;5.00;;;1.87;;
5147;SDS011;2592;48.140;7.614;2022-07-12T12:47:16;1.90;;;1.27;;
5147;SDS011;2592;48.140;7.614;2022-07-12T12:49:59;4.17;;;1.87;;
5147;SDS011;2592;48.140;7.614;2022-07-12T12:52:26;2.27;;;1.70;;
5147;SDS011;2592;48.140;7.614;2022-07-12T12:54:55;3.10;;;1.30;;
5147;SDS011;2592;48.140;7.614;2022-07-12T12:57:22;3.63;;;1.43;;
5147;SDS011;2592;48.140;7.614;2022-07-12T12:59:50;2.60;;;1.73;;
5147;SDS011;2592;48.140;7.614;2022-07-12T13:02:17;5.23;;;1.90;;
5147;SDS011;2592;48.140;7.614;2022-07-12T13:04:44;1.97;;;1.83;;
5147;SDS011;2592;48.140;7.614;2022-07-12T13:07:10;3.17;;;1.50;;
5147;SDS011;2592;48.140;7.614;2022-07-12T13:09:37;5.80;;;2.00;;
5147;SDS011;2592;48.140;7.614;2022-07-12T13:12:05;5.13;;;1.50;;
5147;SDS011;2592;48.140;7.614;2022-07-12T13:14:32;3.10;;;1.60;;
5147;SDS011;2592;48.140;7.614;2022-07-12T13:16:58;2.27;;;1.10;;
5147;SDS011;2592;48.140;7.614;2022-07-12T13:19:24;1.93;;;1.33;;
5147;SDS011;2592;48.140;7.614;2022-07-12T13:21:51;2.43;;;1.50;;
5147;SDS011;2592;48.140;7.614;2022-07-12T13:24:17;5.07;;;1.20;;
5147;SDS011;2592;48.140;7.614;2022-07-12T13:26:44;3.63;;;1.57;;
5147;SDS011;2592;48.140;7.614;2022-07-12T13:29:12;2.70;;;1.63;;
5147;SDS011;2592;48.140;7.614;2022-07-12T13:31:39;1.33;;;1.23;;
5147;SDS011;2592;48.140;7.614;2022-07-12T13:34:05;4.00;;;1.80;;
5147;SDS011;2592;48.140;7.614;2022-07-12T13:36:32;5.73;;;1.50;;
5147;SDS011;2592;48.140;7.614;2022-07-12T13:38:58;4.03;;;1.33;;
5147;SDS011;2592;48.140;7.614;2022-07-12T13:41:45;1.50;;;1.40;;
5147;SDS011;2592;48.140;7.614;2022-07-12T13:44:13;3.30;;;1.63;;
5147;SDS011;2592;48.140;7.614;2022-07-12T13:46:39;2.03;;;1.50;;
5147;SDS011;2592;48.140;7.614;2022-07-12T13:49:06;2.10;;;1.50;;
5147;SDS011;2592;48.140;7.614;2022-07-12T13:51:33;3.30;;;1.80;;
5147;SDS011;2592;48.140;7.614;2022-07-12T13:53:59;1.60;;;1.27;;
5147;SDS011;2592;48.140;7.614;2022-07-12T13:56:26;3.93;;;1.50;;
5147;SDS011;2592;48.140;7.614;2022-07-12T13:58:52;3.97;;;1.87;;
5147;SDS011;2592;48.140;7.614;2022-07-12T14:01:20;2.03;;;1.40;;
5147;SDS011;2592;48.140;7.614;2022-07-12T14:03:47;10.07;;;1.83;;
5147;SDS011;2592;48.140;7.614;2022-07-12T14:06:13;1.70;;;1.47;;
5147;SDS011;2592;48.140;7.614;2022-07-12T14:08:39;2.30;;;1.37;;
5147;SDS011;2592;48.140;7.614;2022-07-12T14:11:06;1.40;;;1.30;;
5147;SDS011;2592;48.140;7.614;2022-07-12T14:13:32;7.13;;;1.50;;
5147;SDS011;2592;48.140;7.614;2022-07-12T14:15:59;2.03;;;1.40;;
5147;SDS011;2592;48.140;7.614;2022-07-12T14:18:27;2.10;;;1.60;;
5147;SDS011;2592;48.140;7.614;2022-07-12T14:20:53;1.80;;;1.70;;
5147;SDS011;2592;48.140;7.614;2022-07-12T14:23:20;1.27;;;1.10;;
5147;SDS011;2592;48.140;7.614;2022-07-12T14:25:46;2.33;;;1.60;;
5147;SDS011;2592;48.140;7.614;2022-07-12T14:28:12;2.80;;;1.30;;
5147;SDS011;2592;48.140;7.614;2022-07-12T14:30:39;3.53;;;1.50;;
5147;SDS011;2592;48.140;7.614;2022-07-12T14:33:05;3.17;;;1.17;;
5147;SDS011;2592;48.140;7.614;2022-07-12T14:35:33;3.70;;;1.40;;
5147;SDS011;2592;48.140;7.614;2022-07-12T14:37:59;2.43;;;1.60;;
5147;SDS011;2592;48.140;7.614;2022-07-12T14:40:26;1.40;;;1.20;;
5147;SDS011;2592;48.140;7.614;2022-07-12T14:42:52;5.60;;;1.73;;
5147;SDS011;2592;48.140;7.614;2022-07-12T14:45:22;2.87;;;1.57;;
5147;SDS011;2592;48.140;7.614;2022-07-12T14:47:48;3.90;;;1.60;;
5147;SDS011;2592;48.140;7.614;2022-07-12T14:50:15;4.33;;;1.20;;
5147;SDS011;2592;48.140;7.614;2022-07-12T14:52:43;4.60;;;1.30;;
5147;SDS011;2592;48.140;7.614;2022-07-12T14:55:10;4.40;;;1.37;;
5147;SDS011;2592;48.140;7.614;2022-07-12T14:57:37;14.40;;;1.30;;
5147;SDS011;2592;48.140;7.614;2022-07-12T15:00:04;5.80;;;1.60;;
5147;SDS011;2592;48.140;7.614;2022-07-12T15:02:31;1.33;;;1.20;;
5147;SDS011;2592;48.140;7.614;2022-07-12T15:04:58;2.50;;;1.53;;
5147;SDS011;2592;48.140;7.614;2022-07-12T15:07:28;12.43;;;1.40;;
5147;SDS011;2592;48.140;7.614;2022-07-12T15:09:56;2.47;;;1.13;;
5147;SDS011;2592;48.140;7.614;2022-07-12T15:12:22;4.20;;;1.10;;
5147;SDS011;2592;48.140;7.614;2022-07-12T15:14:49;4.73;;;1.33;;
5147;SDS011;2592;48.140;7.614;2022-07-12T15:17:15;1.50;;;1.23;;
5147;SDS011;2592;48.140;7.614;2022-07-12T15:19:44;2.17;;;1.03;;
5147;SDS011;2592;48.140;7.614;2022-07-12T15:22:10;4.10;;;1.70;;
5147;SDS011;2592;48.140;7.614;2022-07-12T15:24:37;1.50;;;1.27;;
5147;SDS011;2592;48.140;7.614;2022-07-12T15:27:05;5.80;;;1.30;;
5147;SDS011;2592;48.140;7.614;2022-07-12T15:29:33;3.80;;;1.13;;